Time;durP1;ratioP1;P1;durP2;ratioP2;P2;SDS_P1;SDS_P2;PMS_P1;PMS_P2;Temp;Humidity;BMP_temperature;BMP_pressure;BME280_temperature;BME280_humidity;BME280_pressure;Samples;Min_cycle;Max_cycle;Signal;HPM_P1;HPM_P2
2022/04/03 00:00:10;;;;;;;3.50;0.90;;;;;;;17.47;37.02;101764.06;4925457;29;20059;-73
2022/04/03 00:02:40;;;;;;;3.33;1.10;;;;;;;17.47;33.59;101750.97;4931993;29;20110;-74
2022/04/03 00:05:09;;;;;;;5.47;2.42;;;;;;;17.42;35.57;101755.25;4931644;29;20102;-74
2022/04/03 00:07:38;;;;;;;3.45;1.70;;;;;;;17.36;36.39;101747.28;4931879;29;20549;-78
2022/04/03 00:10:09;;;;;;;4.68;0.90;;;;;;;17.35;35.98;101746.41;4932144;29;20099;-76
2022/04/03 00:12:38;;;;;;;2.40;0.80;;;;;;;17.39;38.56;101752.59;4931752;29;20138;-75
2022/04/03 00:15:07;;;;;;;3.15;1.00;;;;;;;17.29;35.58;101734.97;4912641;29;20128;-76
2022/04/03 00:17:35;;;;;;;4.00;1.15;;;;;;;17.15;34.33;101732.97;4912972;29;20056;-75
2022/04/03 00:20:06;;;;;;;3.83;1.17;;;;;;;17.06;36.48;101724.09;4913351;29;20083;-75
2022/04/03 00:22:35;;;;;;;3.75;1.13;;;;;;;17.19;36.03;101733.06;4912817;29;20052;-74
2022/04/03 00:25:04;;;;;;;4.90;1.35;;;;;;;17.26;36.37;101734.91;4912953;29;20059;-74
2022/04/03 00:27:34;;;;;;;3.05;1.15;;;;;;;17.31;36.08;101734.13;4913034;29;20462;-74
2022/04/03 00:30:03;;;;;;;2.42;0.88;;;;;;;17.28;36.62;101730.59;4912503;29;20040;-75
2022/04/03 00:32:31;;;;;;;2.15;0.80;;;;;;;17.17;35.38;101719.94;4912894;29;20138;-75
2022/04/03 00:35:00;;;;;;;4.45;1.00;;;;;;;17.08;36.22;101711.94;4914491;29;20534;-74
2022/04/03 00:37:30;;;;;;;4.03;0.93;;;;;;;17.08;36.54;101710.19;4914580;29;20048;-75
2022/04/03 00:39:59;;;;;;;3.10;1.13;;;;;;;17.17;37.51;101714.69;4913020;29;20545;-74
2022/04/03 00:42:28;;;;;;;3.20;1.05;;;;;;;17.22;37.53;101723.50;4912918;29;20087;-75
2022/04/03 00:44:57;;;;;;;4.20;1.20;;;;;;;17.27;36.62;101728.81;4911910;29;20091;-75
2022/04/03 00:47:25;;;;;;;2.65;0.90;;;;;;;17.28;35.83;101715.78;4913066;29;20538;-75
2022/04/03 00:49:54;;;;;;;3.45;0.85;;;;;;;17.34;36.33;101718.50;4912139;29;20515;-73
2022/04/03 00:52:22;;;;;;;2.40;0.90;;;;;;;17.35;35.37;101715.03;4912465;29;20106;-74
2022/04/03 00:54:53;;;;;;;3.45;1.00;;;;;;;17.31;35.42;101718.44;4912195;29;20083;-74
2022/04/03 00:57:24;;;;;;;2.00;0.93;;;;;;;17.33;34.89;101721.97;4912900;29;20048;-75
2022/04/03 00:59:52;;;;;;;5.07;1.17;;;;;;;17.21;34.86;101724.38;4922759;29;20184;-76
2022/04/03 01:02:20;;;;;;;3.05;1.83;;;;;;;17.15;34.43;101716.41;4930873;29;20119;-74
2022/04/03 01:04:49;;;;;;;3.70;1.00;;;;;;;17.10;34.90;101713.72;4931271;29;20103;-76
2022/04/03 01:07:17;;;;;;;2.67;0.80;;;;;;;17.09;35.23;101711.09;4931159;29;20119;-74
2022/04/03 01:09:46;;;;;;;5.05;1.45;;;;;;;17.06;34.99;101706.66;4930981;29;20047;-74
2022/04/03 01:12:16;;;;;;;2.88;0.90;;;;;;;17.06;35.95;101711.88;4930677;29;20082;-74
2022/04/03 01:14:45;;;;;;;3.38;0.85;;;;;;;17.03;35.20;101708.34;4917082;28;20056;-73
2022/04/03 01:17:14;;;;;;;3.03;0.80;;;;;;;16.93;35.42;101708.19;4912436;29;20604;-75
2022/04/03 01:19:43;;;;;;;3.30;1.27;;;;;;;16.69;35.98;101694.59;4911907;29;20055;-74
2022/04/03 01:22:12;;;;;;;3.92;1.10;;;;;;;16.53;35.92;101701.25;4912372;29;20570;-73
2022/04/03 01:24:44;;;;;;;3.20;1.38;;;;;;;16.39;36.71;101700.97;4912192;29;20052;-77
2022/04/03 01:27:15;;;;;;;2.97;0.93;;;;;;;16.25;36.39;101702.44;4912526;29;20525;-74
2022/04/03 01:29:43;;;;;;;4.45;1.20;;;;;;;16.21;36.83;101695.38;4915266;29;20107;-76
2022/04/03 01:32:14;;;;;;;3.47;1.10;;;;;;;16.17;36.55;101694.44;4912727;29;20040;-75
2022/04/03 01:34:43;;;;;;;2.20;0.80;;;;;;;16.14;37.06;101686.53;4912496;29;20112;-75
2022/04/03 01:37:12;;;;;;;3.72;1.02;;;;;;;16.09;36.69;101680.34;4912573;29;20514;-73
2022/04/03 01:39:40;;;;;;;3.35;1.00;;;;;;;16.05;38.17;101674.16;4912111;29;20052;-73
2022/04/03 01:42:09;;;;;;;1.77;0.85;;;;;;;15.98;36.96;101677.47;4911649;29;20048;-74
2022/04/03 01:44:40;;;;;;;4.32;1.10;;;;;;;15.90;40.80;101679.94;4912257;29;20139;-74
2022/04/03 01:47:08;;;;;;;5.45;0.90;;;;;;;15.81;38.63;101671.03;4912060;29;20048;-74
2022/04/03 01:49:37;;;;;;;2.60;0.80;;;;;;;15.75;39.60;101665.66;4912127;29;20075;-74
2022/04/03 01:52:06;;;;;;;3.35;1.10;;;;;;;15.73;39.26;101665.59;4911406;29;20623;-73
2022/04/03 01:54:35;;;;;;;5.78;1.08;;;;;;;15.65;39.38;101651.50;4911656;29;20048;-76
2022/04/03 01:57:04;;;;;;;3.00;1.10;;;;;;;15.55;38.84;101644.28;4913116;29;20096;-74
2022/04/03 01:59:32;;;;;;;3.15;1.00;;;;;;;15.62;39.56;101667.97;4923128;29;20055;-75
2022/04/03 02:02:02;;;;;;;1.52;0.90;;;;;;;15.59;39.65;101665.25;4933820;29;20809;-74
2022/04/03 02:04:32;;;;;;;6.63;1.15;;;;;;;15.47;39.60;101652.81;4934033;29;20505;-74
2022/04/03 02:07:03;;;;;;;2.30;0.93;;;;;;;15.36;41.42;101645.56;4933909;29;20052;-76
2022/04/03 02:09:32;;;;;;;2.25;0.77;;;;;;;15.26;40.14;101645.34;4933348;29;20059;-75
2022/04/03 02:12:01;;;;;;;2.10;1.20;;;;;;;15.25;39.99;101651.41;4933561;29;20055;-77
2022/04/03 02:14:38;;;;;;;2.65;0.90;;;;;;;15.11;40.56;101633.66;4934441;28;20055;-79
2022/04/03 02:17:09;;;;;;;3.97;1.27;;;;;;;15.12;41.37;101644.16;4933804;29;20059;-77
2022/04/03 02:19:37;;;;;;;1.92;0.90;;;;;;;15.10;41.59;101650.16;4933917;29;20066;-77
2022/04/03 02:22:08;;;;;;;2.95;0.80;;;;;;;14.90;42.18;101626.19;4933203;29;20504;-77
2022/04/03 02:24:36;;;;;;;2.38;1.13;;;;;;;14.90;42.10;101639.22;4936918;29;20052;-76
2022/04/03 02:27:05;;;;;;;3.70;1.00;;;;;;;14.82;42.49;101634.69;4934904;29;20106;-74
2022/04/03 02:29:33;;;;;;;3.38;1.08;;;;;;;14.67;42.51;101626.47;4933760;29;20050;-74
2022/04/03 02:32:02;;;;;;;3.92;1.02;;;;;;;14.75;44.00;101643.19;4933657;29;20052;-75
2022/04/03 02:34:32;;;;;;;4.70;1.08;;;;;;;14.65;44.88;101639.44;4933686;29;20075;-77
2022/04/03 02:37:02;;;;;;;1.77;0.93;;;;;;;14.59;45.47;101643.59;4933765;29;20087;-82
2022/04/03 02:39:31;;;;;;;2.60;0.93;;;;;;;14.50;42.84;101638.09;4933725;29;20051;-80
2022/04/03 02:42:00;;;;;;;5.65;1.77;;;;;;;14.32;42.93;101615.94;4933150;29;20131;-78
2022/04/03 02:44:29;;;;;;;3.67;1.10;;;;;;;14.39;43.20;101643.03;4933493;29;20055;-78
2022/04/03 02:46:57;;;;;;;2.58;0.90;;;;;;;14.33;45.36;101642.84;4932839;29;20085;-77
2022/04/03 02:49:29;;;;;;;1.63;0.80;;;;;;;14.20;52.78;101637.31;4933892;29;20509;-80
2022/04/03 02:51:59;;;;;;;3.03;0.88;;;;;;;13.90;55.08;101613.84;4933633;29;20118;-77
2022/04/03 02:54:27;;;;;;;5.75;2.03;;;;;;;13.79;51.50;101615.28;4933287;29;20467;-79
2022/04/03 02:56:56;;;;;;;2.33;0.90;;;;;;;13.70;50.79;101618.47;4933518;29;20054;-81
2022/04/03 02:59:24;;;;;;;3.33;0.90;;;;;;;13.73;51.93;101628.09;4933336;29;20058;-80
2022/04/03 03:01:53;;;;;;;4.90;0.80;;;;;;;13.67;48.11;101623.56;4932548;29;20107;-80
2022/04/03 03:04:21;;;;;;;4.53;0.98;;;;;;;13.62;48.12;101620.84;4932880;29;20048;-80
2022/04/03 03:06:50;;;;;;;2.28;0.50;;;;;;;13.59;48.07;101610.34;4932982;29;20118;-78
2022/04/03 03:09:20;;;;;;;5.75;1.05;;;;;;;13.57;48.34;101616.34;4933561;29;20134;-77
2022/04/03 03:11:48;;;;;;;2.60;1.20;;;;;;;13.43;49.08;101600.31;4932863;29;20569;-78
2022/04/03 03:14:17;;;;;;;2.17;1.40;;;;;;;13.40;49.59;101597.63;4933017;28;20060;-79
2022/04/03 03:16:45;;;;;;;3.03;1.20;;;;;;;13.34;49.88;101607.81;4932970;29;20135;-77
2022/04/03 03:19:14;;;;;;;2.30;1.08;;;;;;;13.24;50.00;101603.09;4938464;29;20064;-79
2022/04/03 03:21:42;;;;;;;5.22;2.22;;;;;;;13.26;50.32;101624.84;4934435;29;20070;-78
2022/04/03 03:24:11;;;;;;;5.70;2.42;;;;;;;13.18;50.75;101630.66;4933731;29;20110;-77
2022/04/03 03:26:42;;;;;;;5.85;3.05;;;;;;;13.02;50.91;101605.03;4932909;29;20135;-79
2022/04/03 03:29:11;;;;;;;6.72;3.10;;;;;;;12.99;50.71;101621.41;4932511;29;20052;-78
2022/04/03 03:31:39;;;;;;;5.18;1.85;;;;;;;12.81;52.56;101594.81;4932907;29;20047;-77
2022/04/03 03:34:08;;;;;;;4.22;1.40;;;;;;;12.82;53.11;101614.72;4932764;29;20083;-78
2022/04/03 03:36:37;;;;;;;4.50;1.25;;;;;;;12.55;53.90;101599.09;4932486;29;20086;-78
2022/04/03 03:39:05;;;;;;;2.83;1.00;;;;;;;12.38;57.93;101598.50;4932923;29;20142;-77
2022/04/03 03:41:33;;;;;;;4.88;1.52;;;;;;;12.30;58.32;101611.22;4932390;29;20138;-77
2022/04/03 03:44:09;;;;;;;6.28;2.00;;;;;;;12.23;57.78;101614.41;4932266;29;20063;-77
2022/04/03 03:46:39;;;;;;;6.00;1.95;;;;;;;12.11;57.06;101601.84;4932520;29;20055;-78
2022/04/03 03:49:08;;;;;;;5.53;1.67;;;;;;;12.09;56.97;101607.81;4931962;29;20083;-77
2022/04/03 03:51:37;;;;;;;4.57;2.10;;;;;;;12.08;58.01;101606.06;4932689;29;20140;-76
2022/04/03 03:54:06;;;;;;;4.13;2.20;;;;;;;11.94;56.30;101600.38;4932190;29;20091;-77
2022/04/03 03:56:34;;;;;;;5.80;2.58;;;;;;;11.87;56.03;101594.06;4932673;29;20082;-78
2022/04/03 03:59:05;;;;;;;3.60;1.80;;;;;;;11.88;55.71;101601.00;4932256;29;20083;-77
2022/04/03 04:01:34;;;;;;;7.13;2.15;;;;;;;11.81;56.51;101604.16;4932299;29;20052;-78
2022/04/03 04:04:03;;;;;;;3.70;1.67;;;;;;;11.74;57.59;101600.44;4931760;29;20517;-80
2022/04/03 04:06:31;;;;;;;3.63;1.77;;;;;;;11.55;57.91;101586.75;4932371;29;20051;-77
2022/04/03 04:09:00;;;;;;;6.93;2.05;;;;;;;11.57;58.63;101598.03;4931686;29;20054;-78
2022/04/03 04:11:28;;;;;;;3.10;1.60;;;;;;;11.34;60.30;101574.72;4932249;29;20115;-77
2022/04/03 04:13:56;;;;;;;5.53;1.73;;;;;;;11.28;62.16;101574.47;4935596;28;20064;-77
2022/04/03 04:16:29;;;;;;;7.63;1.65;;;;;;;11.17;61.15;101584.38;4934445;29;20054;-81
2022/04/03 04:19:01;;;;;;;4.68;3.10;;;;;;;11.10;61.76;101580.66;4920423;29;20147;-81
2022/04/03 04:21:29;;;;;;;2.77;1.60;;;;;;;11.10;64.01;101583.25;4912318;29;20088;-76
2022/04/03 04:23:58;;;;;;;5.18;2.15;;;;;;;11.08;64.75;101582.31;4912042;29;20048;-77
2022/04/03 04:26:27;;;;;;;6.50;1.95;;;;;;;11.02;62.87;101579.47;4912960;29;20490;-76
2022/04/03 04:28:55;;;;;;;5.57;2.13;;;;;;;10.96;61.07;101571.44;4912569;29;20471;-77
2022/04/03 04:31:28;;;;;;;4.95;2.10;;;;;;;10.87;61.05;101558.13;4916875;29;20058;-76
2022/04/03 04:33:57;;;;;;;4.07;2.00;;;;;;;10.96;60.66;101584.41;4912391;29;20052;-76
2022/04/03 04:36:25;;;;;;;7.70;2.35;;;;;;;10.83;60.67;101566.59;4912109;29;20590;-74
2022/04/03 04:38:54;;;;;;;6.15;2.10;;;;;;;10.77;60.92;101568.94;4912924;29;20135;-76
2022/04/03 04:41:23;;;;;;;6.97;1.75;;;;;;;10.77;60.96;101589.66;4912997;29;20056;-75
2022/04/03 04:43:51;;;;;;;4.78;2.42;;;;;;;10.70;60.58;101585.91;4911904;29;20094;-76
2022/04/03 04:46:20;;;;;;;7.93;2.35;;;;;;;10.57;61.03;101579.31;4912406;29;20080;-75
2022/04/03 04:48:50;;;;;;;6.32;2.42;;;;;;;10.53;61.56;101582.59;4912318;29;20056;-76
2022/04/03 04:51:19;;;;;;;5.38;2.40;;;;;;;10.44;61.62;101575.31;4912298;29;20107;-77
2022/04/03 04:53:47;;;;;;;8.75;2.15;;;;;;;10.39;60.54;101566.47;4912059;29;20059;-75
2022/04/03 04:56:16;;;;;;;6.47;2.47;;;;;;;10.27;61.16;101561.63;4912243;29;20479;-74
2022/04/03 04:58:44;;;;;;;6.82;2.17;;;;;;;10.37;60.75;101581.03;4913511;29;20143;-76
2022/04/03 05:01:12;;;;;;;5.53;2.00;;;;;;;10.35;60.96;101590.44;4931079;29;20055;-75
2022/04/03 05:03:41;;;;;;;6.35;2.38;;;;;;;10.31;62.68;101590.22;4930545;29;20190;-74
2022/04/03 05:06:13;;;;;;;8.35;2.85;;;;;;;10.26;62.76;101590.91;4931301;29;20051;-74
2022/04/03 05:08:42;;;;;;;6.13;2.33;;;;;;;10.16;63.81;101583.53;4932081;29;20062;-73
2022/04/03 05:11:10;;;;;;;6.05;2.25;;;;;;;10.16;66.60;101593.88;4941138;29;20048;-73
2022/04/03 05:13:40;;;;;;;5.22;2.45;;;;;;;10.13;65.11;101595.47;4930165;28;20051;-74
2022/04/03 05:16:08;;;;;;;8.63;2.65;;;;;;;10.07;65.58;101588.31;4930980;29;20796;-75
2022/04/03 05:18:37;;;;;;;6.43;2.85;;;;;;;10.06;66.14;101592.59;4931130;29;20062;-76
2022/04/03 05:21:06;;;;;;;5.07;2.22;;;;;;;10.00;66.49;101581.09;4930837;29;20047;-76
2022/04/03 05:23:36;;;;;;;6.95;2.78;;;;;;;10.00;66.26;101583.69;4930866;29;20048;-79
2022/04/03 05:26:05;;;;;;;5.97;2.85;;;;;;;9.92;65.80;101579.84;4931347;29;20050;-79
2022/04/03 05:28:35;;;;;;;4.47;2.35;;;;;;;9.90;66.42;101581.50;4931243;29;20055;-79
2022/04/03 05:31:04;;;;;;;9.65;2.53;;;;;;;9.85;66.86;101583.88;4921396;29;20047;-78
2022/04/03 05:33:32;;;;;;;6.53;2.30;;;;;;;9.81;66.13;101580.25;4915875;29;20056;-80
2022/04/03 05:36:00;;;;;;;6.25;2.83;;;;;;;9.72;67.40;101568.63;4915744;29;20592;-78
2022/04/03 05:38:29;;;;;;;5.25;2.40;;;;;;;9.69;66.64;101574.53;4916298;29;20050;-78
2022/04/03 05:40:59;;;;;;;8.25;2.83;;;;;;;9.65;69.66;101575.22;4916316;29;20577;-79
2022/04/03 05:43:28;;;;;;;8.43;2.92;;;;;;;9.61;69.11;101570.72;4915820;29;20044;-79
2022/04/03 05:45:56;;;;;;;4.32;2.33;;;;;;;9.57;68.48;101568.78;4915909;29;20048;-78
2022/04/03 05:48:25;;;;;;;3.95;2.05;;;;;;;9.52;70.29;101560.81;4915664;29;20486;-78
2022/04/03 05:50:53;;;;;;;11.25;2.92;;;;;;;9.49;71.83;101557.22;4916168;29;20068;-77
2022/04/03 05:53:22;;;;;;;5.57;2.85;;;;;;;9.48;70.98;101558.03;4915109;29;20498;-78
2022/04/03 05:55:51;;;;;;;4.72;2.33;;;;;;;9.44;72.64;101552.72;4915837;29;20135;-77
2022/04/03 05:58:21;;;;;;;7.07;2.38;;;;;;;9.38;71.75;101548.97;4915528;29;20846;-78
2022/04/03 06:00:49;;;;;;;3.60;2.22;;;;;;;9.34;72.85;101547.94;4933633;29;20044;-77
2022/04/03 06:03:18;;;;;;;7.07;2.15;;;;;;;9.27;74.19;101548.44;4933890;29;20201;-79
2022/04/03 06:05:47;;;;;;;5.97;3.03;;;;;;;9.18;74.68;101540.28;4937344;29;20052;-78
2022/04/03 06:08:15;;;;;;;13.27;2.47;;;;;;;9.08;73.18;101535.50;4937165;29;20127;-77
2022/04/03 06:10:44;;;;;;;3.95;2.05;;;;;;;8.99;72.94;101541.09;4934495;29;20055;-77
2022/04/03 06:13:13;;;;;;;6.43;2.30;;;;;;;8.90;72.37;101531.19;4934130;29;20051;-77
2022/04/03 06:15:46;;;;;;;5.53;2.15;;;;;;;8.90;72.50;101535.47;4933501;28;20051;-77
2022/04/03 06:18:15;;;;;;;;;;;;;;;8.86;71.79;101534.44;4934494;29;20048;-77
2022/04/03 06:20:44;;;;;;;3.97;1.70;;;;;;;8.84;72.38;101525.72;4933836;29;19930;-77
2022/04/03 06:23:13;;;;;;;6.82;2.72;;;;;;;8.78;72.56;101520.28;4933718;29;20558;-77
2022/04/03 06:25:42;;;;;;;3.70;2.15;;;;;;;8.76;72.17;101506.44;4933792;29;20111;-78
2022/04/03 06:28:10;;;;;;;4.97;2.22;;;;;;;8.70;72.72;101506.13;4933722;29;20056;-77
2022/04/03 06:30:39;;;;;;;9.52;2.58;;;;;;;8.67;72.72;101508.56;4926595;29;20051;-78
2022/04/03 06:33:09;;;;;;;3.83;2.20;;;;;;;8.62;71.94;101505.75;4914892;29;20459;-79
2022/04/03 06:35:38;;;;;;;5.05;2.17;;;;;;;8.60;71.69;101502.22;4915035;29;20048;-79
2022/04/03 06:38:07;;;;;;;6.18;2.10;;;;;;;8.50;72.56;101493.13;4914744;29;20051;-78
2022/04/03 06:40:36;;;;;;;8.68;2.00;;;;;;;8.53;72.20;101497.56;4915387;29;20113;-78
2022/04/03 06:43:04;;;;;;;11.10;2.70;;;;;;;8.49;72.06;101491.34;4913716;29;20088;-77
2022/04/03 06:45:33;;;;;;;3.28;2.38;;;;;;;8.46;72.09;101490.34;4914884;29;20090;-79
2022/04/03 06:48:02;;;;;;;5.50;2.33;;;;;;;8.39;72.78;101489.97;4914549;29;20048;-79
2022/04/03 06:50:32;;;;;;;5.35;1.80;;;;;;;8.35;72.78;101494.91;4914881;29;20200;-78
2022/04/03 06:53:01;;;;;;;7.75;2.13;;;;;;;8.28;72.34;101498.00;4913822;29;20052;-79
2022/04/03 06:55:29;;;;;;;8.38;2.88;;;;;;;8.17;72.75;101493.16;4914485;29;20498;-78
2022/04/03 06:57:58;;;;;;;8.93;3.83;;;;;;;8.08;72.98;101491.81;4914357;29;20507;-78
2022/04/03 07:00:32;;;;;;;8.40;3.78;;;;;;;8.12;73.47;101498.91;4920249;29;20063;-80
2022/04/03 07:03:01;;;;;;;9.52;4.18;;;;;;;8.11;73.59;101497.16;4935989;29;20055;-79
2022/04/03 07:05:29;;;;;;;10.45;3.22;;;;;;;8.12;74.47;101496.31;4937656;29;20066;-78
2022/04/03 07:08:00;;;;;;;11.13;3.50;;;;;;;8.09;74.85;101494.47;4933990;29;20079;-78
2022/04/03 07:10:28;;;;;;;9.32;3.20;;;;;;;8.08;74.21;101497.84;4933057;29;20494;-79
2022/04/03 07:12:59;;;;;;;6.70;3.10;;;;;;;8.06;74.48;101493.41;4933037;29;20070;-78
2022/04/03 07:15:28;;;;;;;2.97;2.05;;;;;;;8.03;74.85;101494.16;4933012;28;20095;-78
2022/04/03 07:17:56;;;;;;;5.38;2.22;;;;;;;8.02;74.98;101483.75;4932981;29;20071;-78
2022/04/03 07:20:25;;;;;;;4.05;1.75;;;;;;;8.00;74.26;101486.28;4932914;29;20082;-79
2022/04/03 07:22:55;;;;;;;7.82;2.10;;;;;;;7.87;74.51;101458.97;4932950;29;20055;-78
2022/04/03 07:25:26;;;;;;;4.47;2.05;;;;;;;7.96;74.34;101476.59;4932999;29;20717;-79
2022/04/03 07:27:55;;;;;;;4.72;1.80;;;;;;;7.93;74.72;101471.31;4933022;29;20051;-79
2022/04/03 07:30:24;;;;;;;8.40;1.98;;;;;;;7.93;74.89;101469.59;4932844;29;20055;-78
2022/04/03 07:32:52;;;;;;;8.18;2.60;;;;;;;7.96;74.85;101471.44;4932414;29;20052;-78
2022/04/03 07:35:21;;;;;;;4.93;1.95;;;;;;;7.96;74.68;101469.75;4932542;29;20047;-78
2022/04/03 07:37:49;;;;;;;4.75;2.30;;;;;;;7.96;75.09;101471.44;4932946;29;20438;-78
2022/04/03 07:40:17;;;;;;;4.68;2.15;;;;;;;7.87;75.16;101447.78;4933098;29;20044;-78
2022/04/03 07:42:49;;;;;;;3.40;2.15;;;;;;;7.98;75.40;101457.84;4932380;29;20143;-80
2022/04/03 07:45:18;;;;;;;6.60;2.15;;;;;;;7.98;76.17;101457.84;4932040;29;20047;-78
2022/04/03 07:47:48;;;;;;;6.68;2.85;;;;;;;7.89;76.45;101428.13;4932247;29;20121;-74
2022/04/03 07:50:18;;;;;;;7.68;2.97;;;;;;;8.00;75.93;101439.88;4932220;29;20063;-76
2022/04/03 07:52:47;;;;;;;5.40;2.40;;;;;;;8.01;76.26;101438.19;4931784;29;20099;-76
2022/04/03 07:55:17;;;;;;;4.75;2.25;;;;;;;8.01;76.24;101440.75;4932431;29;20123;-76
2022/04/03 07:57:47;;;;;;;3.70;2.10;;;;;;;7.92;78.20;101443.75;4932483;29;20062;-75
2022/04/03 08:00:17;;;;;;;7.22;2.40;;;;;;;7.87;78.50;101440.94;4933723;29;20580;-76
2022/04/03 08:02:46;;;;;;;5.85;2.28;;;;;;;7.78;81.70;101442.16;4936645;29;20048;-76
2022/04/03 08:05:14;;;;;;;2.95;1.80;;;;;;;7.66;84.25;101442.41;4932532;29;20048;-76
2022/04/03 08:07:44;;;;;;;3.75;1.98;;;;;;;7.55;85.32;101436.69;4932507;29;20111;-77
2022/04/03 08:10:15;;;;;;;6.20;2.38;;;;;;;7.48;87.14;101432.91;4931596;29;20055;-76
2022/04/03 08:12:46;;;;;;;4.85;2.13;;;;;;;7.50;87.50;101418.44;4931940;29;20107;-76
2022/04/03 08:15:17;;;;;;;8.60;1.95;;;;;;;7.50;90.93;101417.53;4931706;28;20122;-76
2022/04/03 08:17:46;;;;;;;4.03;1.98;;;;;;;7.48;90.38;101414.00;4932157;29;20083;-74
2022/04/03 08:20:17;;;;;;;5.93;2.60;;;;;;;7.45;92.32;101413.84;4931561;29;20139;-76
2022/04/03 08:22:47;;;;;;;3.22;1.83;;;;;;;7.41;91.78;101412.78;4931285;29;20066;-77
2022/04/03 08:25:16;;;;;;;7.35;1.63;;;;;;;7.42;90.40;101403.38;4930805;29;20085;-76
2022/04/03 08:27:46;;;;;;;5.45;1.88;;;;;;;7.44;90.47;101405.22;4930509;29;20059;-77
2022/04/03 08:30:27;;;;;;;5.22;2.45;;;;;;;7.49;89.18;101402.88;4931426;29;20055;-77
2022/04/03 08:32:56;;;;;;;3.33;2.00;;;;;;;7.52;88.09;101395.34;4931592;29;20509;-76
2022/04/03 08:35:26;;;;;;;4.07;1.80;;;;;;;7.53;87.35;101395.41;4931520;29;20051;-76
2022/04/03 08:37:55;;;;;;;6.25;2.42;;;;;;;7.55;87.17;101398.06;4931611;29;20083;-76
2022/04/03 08:40:25;;;;;;;6.30;2.00;;;;;;;7.58;87.23;101397.34;4931466;29;20051;-75
2022/04/03 08:42:56;;;;;;;5.53;2.05;;;;;;;7.58;88.42;101394.75;4931415;29;20056;-77
2022/04/03 08:45:27;;;;;;;5.18;2.20;;;;;;;7.59;88.07;101387.13;4932012;29;20055;-77
2022/04/03 08:47:56;;;;;;;5.50;2.28;;;;;;;7.62;87.54;101379.53;4931261;29;20040;-76
2022/04/03 08:50:27;;;;;;;4.85;2.10;;;;;;;7.62;86.85;101382.13;4930662;29;20047;-77
2022/04/03 08:52:56;;;;;;;2.97;1.85;;;;;;;7.66;86.57;101383.16;4930764;29;20056;-77
2022/04/03 08:55:25;;;;;;;3.80;2.00;;;;;;;7.63;85.42;101386.47;4931503;29;20047;-77
2022/04/03 08:57:54;;;;;;;7.13;2.47;;;;;;;7.65;85.92;101396.84;4932691;29;20075;-77
2022/04/03 09:00:22;;;;;;;4.57;2.13;;;;;;;7.66;86.72;101401.19;4933227;29;20094;-78
2022/04/03 09:02:53;;;;;;;3.88;2.30;;;;;;;7.64;86.79;101400.22;4931644;29;20051;-77
2022/04/03 09:05:21;;;;;;;5.63;2.65;;;;;;;7.63;87.35;101394.22;4931219;29;20098;-77
2022/04/03 09:08:01;;;;;;;7.75;2.63;;;;;;;7.65;88.27;101387.44;4930661;29;20051;-78
2022/04/03 09:10:31;;;;;;;4.13;2.33;;;;;;;7.67;88.62;101398.72;4929810;29;20048;-76
2022/04/03 09:13:08;;;;;;;5.72;2.08;;;;;;;7.67;89.08;101393.56;4921063;29;20048;-77
2022/04/03 09:15:43;;;;;;;6.32;3.08;;;;;;;7.67;nan;101396.16;4926555;28;20059;-74
2022/04/03 09:18:20;;;;;;;6.82;2.28;;;;;;;7.69;89.73;101403.94;4930545;29;20486;-77
2022/04/03 09:20:49;;;;;;;4.32;1.83;;;;;;;7.69;90.48;101394.50;4931102;29;20139;-77
2022/04/03 09:23:20;;;;;;;3.00;1.80;;;;;;;7.60;90.36;101372.53;4930230;29;20134;-76
2022/04/03 09:25:49;;;;;;;6.32;2.45;;;;;;;7.70;91.04;101392.84;4930685;29;20127;-76
2022/04/03 09:28:17;;;;;;;6.07;2.50;;;;;;;7.70;91.21;101388.56;4930944;29;20082;-77
2022/04/03 09:30:47;;;;;;;5.57;2.30;;;;;;;7.68;92.57;101392.75;4930647;29;20090;-76
2022/04/03 09:33:19;;;;;;;4.72;2.45;;;;;;;7.64;92.79;101401.13;4930119;29;20051;-76
2022/04/03 09:36:00;;;;;;;4.85;2.25;;;;;;;7.54;92.21;101398.88;4931185;29;20051;-76
2022/04/03 09:38:30;;;;;;;5.05;2.08;;;;;;;7.50;91.27;101384.94;4931231;29;20052;-76
2022/04/03 09:40:59;;;;;;;5.30;2.10;;;;;;;7.49;91.47;101384.84;4930549;29;20755;-76
2022/04/03 09:43:29;;;;;;;4.13;2.25;;;;;;;7.48;91.08;101375.38;4930536;29;20548;-77
2022/04/03 09:45:59;;;;;;;5.38;2.38;;;;;;;7.46;91.63;101371.84;4930968;29;20124;-77
2022/04/03 09:48:29;;;;;;;5.20;2.20;;;;;;;7.43;92.54;101370.00;4930606;29;20044;-77
2022/04/03 09:51:05;;;;;;;5.82;2.65;;;;;;;7.41;91.88;101365.56;4930481;29;20088;-77
2022/04/03 09:53:45;;;;;;;8.10;2.63;;;;;;;7.36;91.72;101361.88;4930551;29;20048;-77
2022/04/03 09:56:15;;;;;;;7.60;2.65;;;;;;;7.31;92.50;101361.63;4933072;29;20101;-77
2022/04/03 09:58:59;;;;;;;4.70;2.13;;;;;;;7.33;92.15;101366.06;4932822;29;20533;-77
2022/04/03 10:01:30;;;;;;;6.00;2.53;;;;;;;7.35;91.33;101355.81;4930690;29;20087;-77
2022/04/03 10:04:00;;;;;;;6.45;2.65;;;;;;;7.34;92.18;101354.06;4930529;29;20091;-77
2022/04/03 10:06:31;;;;;;;3.80;2.05;;;;;;;7.34;92.71;101359.22;4930971;29;20642;-76
2022/04/03 10:09:00;;;;;;;6.53;2.20;;;;;;;7.38;93.79;101363.72;4930211;29;20048;-75
2022/04/03 10:11:29;;;;;;;4.13;1.98;;;;;;;7.40;92.30;101358.63;4930347;29;20497;-76
2022/04/03 10:13:58;;;;;;;4.40;2.28;;;;;;;7.42;93.07;101331.28;4930230;28;20087;-75
2022/04/03 10:16:33;;;;;;;3.67;1.90;;;;;;;7.44;93.57;101339.97;4931184;28;20051;-76
2022/04/03 10:19:09;;;;;;;4.40;2.15;;;;;;;7.44;92.73;101348.56;4933417;29;20111;-76
2022/04/03 10:21:44;;;;;;;4.80;2.33;;;;;;;7.45;92.93;101346.91;4933598;29;20056;-77
2022/04/03 10:24:17;;;;;;;6.00;2.53;;;;;;;7.47;91.22;101350.44;4933536;29;20059;-76
2022/04/03 10:26:50;;;;;;;4.40;2.20;;;;;;;7.48;91.41;101352.19;4933470;29;20123;-77
2022/04/03 10:29:19;;;;;;;5.13;2.80;;;;;;;7.46;91.02;101349.53;4933958;29;20052;-77
2022/04/03 10:31:58;;;;;;;8.07;2.38;;;;;;;7.45;91.43;101363.22;4933451;29;20560;-77
2022/04/03 10:34:28;;;;;;;3.65;1.95;;;;;;;7.46;91.68;101348.66;4933936;29;20048;-77
2022/04/03 10:36:58;;;;;;;7.15;2.47;;;;;;;7.48;91.45;101349.63;4933476;29;20043;-77
2022/04/03 10:39:30;;;;;;;3.33;2.35;;;;;;;7.48;91.36;101352.19;4932816;29;20138;-78
2022/04/03 10:42:20;;;;;;;3.75;2.55;;;;;;;7.49;92.15;101343.66;4933179;29;20060;-75
2022/04/03 10:45:27;;;;;;;5.00;2.38;;;;;;;7.48;91.99;101332.47;4933603;29;20260;-77
2022/04/03 10:48:30;;;;;;;6.13;2.25;;;;;;;7.42;94.71;101332.19;4932323;29;20569;-76
2022/04/03 10:51:04;;;;;;;5.97;2.35;;;;;;;7.31;97.67;101323.91;4930628;29;20048;-75
2022/04/03 10:53:36;;;;;;;4.22;2.30;;;;;;;7.27;97.56;101329.69;4936111;29;20522;-75
2022/04/03 10:56:09;;;;;;;6.38;2.50;;;;;;;7.27;97.06;101323.66;4934665;29;20075;-76
2022/04/03 10:58:49;;;;;;;3.92;2.30;;;;;;;7.21;96.98;101306.19;4934042;29;20052;-75
2022/04/03 11:01:29;;;;;;;4.78;2.92;;;;;;;7.34;96.28;101310.31;4932860;29;20079;-77
2022/04/03 11:04:01;;;;;;;9.00;3.00;;;;;;;7.37;95.77;101328.47;4932589;29;20138;-73
2022/04/03 11:06:33;;;;;;;;;;;;;;;7.39;94.94;101324.28;4920874;29;20080;-75
2022/04/03 11:09:09;;;;;;;4.63;2.53;;;;;;;7.38;95.25;101322.53;4913822;29;19938;-78
2022/04/03 11:11:49;;;;;;;6.70;2.40;;;;;;;7.41;95.75;101324.38;4914109;29;20433;-77
2022/04/03 11:14:52;;;;;;;3.90;2.30;;;;;;;7.42;96.14;101331.28;4924785;29;20048;-76
2022/04/03 11:17:21;;;;;;;5.40;2.53;;;;;;;7.41;96.84;101327.81;4932573;29;20497;-77
2022/04/03 11:19:50;;;;;;;5.80;2.38;;;;;;;7.42;95.95;101323.56;4933639;29;20588;-77
2022/04/03 11:22:19;;;;;;;4.65;2.63;;;;;;;7.45;95.70;101321.16;4932866;29;20051;-77
2022/04/03 11:24:51;;;;;;;6.10;2.58;;;;;;;7.46;96.53;101318.63;4932813;29;20055;-76
2022/04/03 11:27:20;;;;;;;6.30;2.50;;;;;;;7.44;99.33;101314.22;4933137;29;20082;-75
2022/04/03 11:29:49;;;;;;;4.93;2.28;;;;;;;7.43;100.00;101312.47;4932748;29;20293;-76
2022/04/03 11:32:18;;;;;;;4.22;2.28;;;;;;;7.42;100.00;101308.09;4932542;29;20043;-77
2022/04/03 11:34:57;;;;;;;4.53;2.15;;;;;;;7.43;100.00;101323.66;4932722;29;20082;-76
2022/04/03 11:37:25;;;;;;;3.92;2.42;;;;;;;7.44;100.00;101319.38;4932856;29;20051;-76
2022/04/03 11:39:56;;;;;;;3.63;2.13;;;;;;;7.38;100.00;101313.94;4932660;29;20083;-76
2022/04/03 11:42:25;;;;;;;3.47;1.95;;;;;;;7.37;100.00;101312.16;4932527;29;20051;-77